createdAt,value
2018-10-21T00:00:30.805Z,98.20
2018-10-21T00:02:59.185Z,98.30
2018-10-21T00:05:27.538Z,98.40
2018-10-21T00:07:55.908Z,98.40
2018-10-21T00:10:24.247Z,98.40
2018-10-21T00:12:52.604Z,98.40
2018-10-21T00:15:20.984Z,98.40
2018-10-21T00:17:49.401Z,98.30
2018-10-21T00:20:17.749Z,98.20
2018-10-21T00:22:46.113Z,98.30
2018-10-21T00:25:14.444Z,98.50
2018-10-21T00:27:42.907Z,98.50
2018-10-21T00:30:11.319Z,98.50
2018-10-21T00:32:45.075Z,98.50
2018-10-21T00:35:13.429Z,98.50
2018-10-21T00:37:41.904Z,98.60
2018-10-21T00:40:10.236Z,98.60
2018-10-21T00:42:38.703Z,98.70
2018-10-21T00:45:07.774Z,98.80
2018-10-21T00:47:36.079Z,98.90
2018-10-21T00:50:05.379Z,98.90
2018-10-21T00:52:33.708Z,98.90
2018-10-21T00:55:02.102Z,98.80
2018-10-21T00:57:30.427Z,98.90
2018-10-21T00:59:58.908Z,98.90
2018-10-21T01:02:27.285Z,99.10
2018-10-21T01:04:55.652Z,98.90
2018-10-21T01:07:23.975Z,98.80
2018-10-21T01:09:52.444Z,98.80
2018-10-21T01:12:20.787Z,98.90
2018-10-21T01:14:49.148Z,99.10
2018-10-21T01:17:17.553Z,99.20
2018-10-21T01:19:46.188Z,99.10
2018-10-21T01:22:14.509Z,99.00
2018-10-21T01:24:42.859Z,98.90
2018-10-21T01:27:11.266Z,98.90
2018-10-21T01:29:43.127Z,99.10
2018-10-21T01:32:11.460Z,99.20
2018-10-21T01:34:40.595Z,99.40
2018-10-21T01:37:08.983Z,99.50
2018-10-21T01:41:03.940Z,99.30
2018-10-21T01:43:33.258Z,99.50
2018-10-21T01:46:02.207Z,99.60
2018-10-21T01:48:31.351Z,99.70
2018-10-21T01:50:59.716Z,99.70
2018-10-21T01:53:28.040Z,99.80
2018-10-21T01:55:56.385Z,99.90
2018-10-21T01:58:24.705Z,99.90
2018-10-21T02:00:53.073Z,99.90
2018-10-21T02:03:21.398Z,99.90
2018-10-21T02:05:49.769Z,99.90
2018-10-21T02:08:18.099Z,99.90
2018-10-21T02:10:46.447Z,99.80
2018-10-21T02:13:14.789Z,99.80
2018-10-21T02:15:43.127Z,99.90
2018-10-21T02:18:11.487Z,99.90
2018-10-21T02:20:39.824Z,99.90
2018-10-21T02:23:08.469Z,99.90
2018-10-21T02:25:36.824Z,99.90
2018-10-21T02:28:05.221Z,99.90
2018-10-21T02:30:33.561Z,99.90
2018-10-21T02:33:02.237Z,99.90
2018-10-21T02:35:30.593Z,99.90
2018-10-21T02:37:59.080Z,99.90
2018-10-21T02:41:43.222Z,99.90
2018-10-21T02:44:20.248Z,99.90
2018-10-21T02:46:49.595Z,99.90
2018-10-21T02:49:18.477Z,99.90
2018-10-21T02:51:52.220Z,99.90
2018-10-21T02:54:30.151Z,99.90
2018-10-21T02:56:58.601Z,99.90
2018-10-21T02:59:27.248Z,99.90
2018-10-21T03:01:55.735Z,99.90
2018-10-21T03:04:24.558Z,99.90
2018-10-21T03:06:53.247Z,99.90
2018-10-21T03:09:21.677Z,99.90
2018-10-21T03:11:49.947Z,99.90
2018-10-21T03:14:18.280Z,99.90
2018-10-21T03:16:46.727Z,99.90
2018-10-21T03:19:15.178Z,99.90
2018-10-21T03:21:43.517Z,99.90
2018-10-21T03:24:11.862Z,99.90
2018-10-21T03:26:40.201Z,99.90
2018-10-21T03:29:08.607Z,99.90
2018-10-21T03:31:36.935Z,99.90
2018-10-21T03:34:05.686Z,99.90
2018-10-21T03:36:33.838Z,99.90
2018-10-21T03:39:02.436Z,99.90
2018-10-21T03:41:30.991Z,99.90
2018-10-21T03:43:59.391Z,99.90
2018-10-21T03:46:27.720Z,99.90
2018-10-21T03:48:56.075Z,99.90
2018-10-21T03:51:24.400Z,99.90
2018-10-21T03:53:52.814Z,99.90
2018-10-21T03:56:21.238Z,99.90
2018-10-21T03:58:49.603Z,99.90
2018-10-21T04:01:17.936Z,99.90
2018-10-21T04:03:46.303Z,99.90
2018-10-21T04:06:14.625Z,99.90
2018-10-21T04:08:42.975Z,99.90
2018-10-21T04:11:11.346Z,99.90
2018-10-21T04:13:39.698Z,99.90
2018-10-21T04:16:08.167Z,99.90
2018-10-21T04:18:36.508Z,99.90
2018-10-21T04:21:04.876Z,99.90
2018-10-21T04:23:33.221Z,99.90
2018-10-21T04:26:01.560Z,99.90
2018-10-21T04:28:29.913Z,99.90
2018-10-21T04:30:58.251Z,99.90
2018-10-21T04:33:42.681Z,99.90
2018-10-21T04:36:12.510Z,99.90
2018-10-21T04:38:52.212Z,99.90
2018-10-21T04:41:20.623Z,99.90
2018-10-21T04:43:48.983Z,99.90
2018-10-21T04:46:17.357Z,99.90
2018-10-21T04:48:45.691Z,99.90
2018-10-21T04:51:14.018Z,99.90
2018-10-21T04:53:42.375Z,99.90
2018-10-21T04:56:10.813Z,99.90
2018-10-21T04:58:39.148Z,99.90
2018-10-21T05:01:07.516Z,99.90
2018-10-21T05:03:35.845Z,99.90
2018-10-21T05:06:04.440Z,99.90
2018-10-21T05:08:32.781Z,99.90
2018-10-21T05:11:01.130Z,99.90
2018-10-21T05:13:29.462Z,99.90
2018-10-21T05:15:57.861Z,99.90
2018-10-21T05:18:26.182Z,99.90
2018-10-21T05:20:54.542Z,99.90
2018-10-21T05:23:22.904Z,99.90
2018-10-21T05:25:51.250Z,99.90
2018-10-21T05:28:19.574Z,99.90
2018-10-21T05:30:47.923Z,99.90
2018-10-21T05:33:16.251Z,99.90
2018-10-21T05:35:44.688Z,99.90
2018-10-21T05:38:13.033Z,99.90
2018-10-21T05:40:41.460Z,99.90
2018-10-21T05:43:09.763Z,99.90
2018-10-21T05:45:38.116Z,99.90
2018-10-21T05:48:06.483Z,99.90
2018-10-21T05:50:34.836Z,99.90
2018-10-21T05:53:03.153Z,99.90
2018-10-21T05:55:31.495Z,99.90
2018-10-21T05:58:00.001Z,99.90
2018-10-21T06:00:28.336Z,99.90
2018-10-21T06:02:56.685Z,99.90
2018-10-21T06:05:34.559Z,99.90
2018-10-21T06:08:02.900Z,99.90
2018-10-21T06:10:31.229Z,99.90
2018-10-21T06:12:59.715Z,99.90
2018-10-21T06:15:28.061Z,99.90
2018-10-21T06:17:56.456Z,99.90
2018-10-21T06:21:31.864Z,99.90
2018-10-21T06:24:00.194Z,99.90
2018-10-21T06:26:28.549Z,99.90
2018-10-21T06:28:56.886Z,99.90
2018-10-21T06:31:25.275Z,99.90
2018-10-21T06:33:53.600Z,99.90
2018-10-21T06:36:21.947Z,99.90
2018-10-21T06:38:50.277Z,99.90
2018-10-21T06:41:18.615Z,99.90
2018-10-21T06:43:46.931Z,99.90
2018-10-21T06:46:15.256Z,99.90
2018-10-21T06:48:43.588Z,99.90
2018-10-21T06:51:11.964Z,99.90
2018-10-21T06:53:40.268Z,99.90
2018-10-21T06:56:08.612Z,99.90
2018-10-21T06:58:36.985Z,99.90
2018-10-21T07:01:05.469Z,99.90
2018-10-21T07:03:33.804Z,99.90
2018-10-21T07:06:28.203Z,99.90
2018-10-21T07:08:58.042Z,99.90
2018-10-21T07:11:26.374Z,99.90
2018-10-21T07:13:54.702Z,99.90
2018-10-21T07:16:23.131Z,99.90
2018-10-21T07:18:51.962Z,99.90
2018-10-21T07:21:20.320Z,99.90
2018-10-21T07:23:48.823Z,99.90
2018-10-21T07:26:17.139Z,99.90
2018-10-21T07:28:45.484Z,99.90
2018-10-21T07:31:13.815Z,99.90
2018-10-21T07:33:42.237Z,99.90
2018-10-21T07:36:10.648Z,99.90
2018-10-21T07:38:38.908Z,99.90
2018-10-21T07:41:07.233Z,99.90
2018-10-21T07:43:35.623Z,99.90
2018-10-21T07:46:04.021Z,99.90
2018-10-21T07:48:32.435Z,99.90
2018-10-21T07:51:00.755Z,99.90
2018-10-21T07:53:29.089Z,99.90
2018-10-21T07:55:57.403Z,99.90
2018-10-21T07:58:25.745Z,99.90
2018-10-21T08:00:54.133Z,99.90
2018-10-21T08:03:22.444Z,99.90
2018-10-21T08:06:02.095Z,99.90
2018-10-21T08:08:30.477Z,99.90
2018-10-21T08:10:58.771Z,99.90
2018-10-21T08:13:27.807Z,99.90
2018-10-21T08:15:56.151Z,99.90
2018-10-21T08:18:24.519Z,99.90
2018-10-21T08:20:52.840Z,99.90
2018-10-21T08:23:21.187Z,99.90
2018-10-21T08:25:50.601Z,99.90
2018-10-21T08:28:19.072Z,99.90
2018-10-21T08:30:47.303Z,99.90
2018-10-21T08:33:15.639Z,99.90
2018-10-21T08:35:43.983Z,99.90
2018-10-21T08:38:12.403Z,99.90
2018-10-21T08:40:40.776Z,99.90
2018-10-21T08:43:09.098Z,99.90
2018-10-21T08:45:37.443Z,99.90
2018-10-21T08:48:05.792Z,99.90
2018-10-21T08:50:34.135Z,99.90
2018-10-21T08:53:02.460Z,99.90
2018-10-21T08:55:30.805Z,99.90
2018-10-21T08:57:59.155Z,99.90
2018-10-21T09:00:27.599Z,99.80
2018-10-21T09:02:56.001Z,99.90
2018-10-21T09:05:24.342Z,99.70
2018-10-21T09:07:52.674Z,99.50
2018-10-21T09:10:21.079Z,99.40
2018-10-21T09:12:49.401Z,99.20
2018-10-21T09:15:18.791Z,99.20
2018-10-21T09:17:47.012Z,99.10
2018-10-21T09:20:16.464Z,99.00
2018-10-21T09:22:44.791Z,99.10
2018-10-21T09:25:13.710Z,98.90
2018-10-21T09:27:42.863Z,98.80
2018-10-21T09:30:14.019Z,98.70
2018-10-21T09:32:42.368Z,98.40
2018-10-21T09:35:14.819Z,98.50
2018-10-21T09:37:43.558Z,98.50
2018-10-21T09:40:14.343Z,98.40
2018-10-21T09:42:42.675Z,98.30
2018-10-21T09:45:13.059Z,98.20
2018-10-21T09:47:41.415Z,98.00
2018-10-21T09:50:09.977Z,97.90
2018-10-21T09:52:38.297Z,98.00
2018-10-21T09:55:11.634Z,98.00
2018-10-21T09:57:39.960Z,97.80
2018-10-21T10:00:08.357Z,97.80
2018-10-21T10:02:42.211Z,97.70
2018-10-21T10:05:10.583Z,97.70
2018-10-21T10:07:38.927Z,97.50
2018-10-21T10:10:08.873Z,97.40
2018-10-21T10:12:37.180Z,97.40
2018-10-21T10:15:07.080Z,97.40
2018-10-21T10:17:35.459Z,97.30
2018-10-21T10:20:04.267Z,97.20
2018-10-21T10:22:32.612Z,97.20
2018-10-21T10:25:00.982Z,97.00
2018-10-21T10:27:29.295Z,97.00
2018-10-21T10:29:57.629Z,96.70
2018-10-21T10:32:25.977Z,96.70
2018-10-21T10:34:54.291Z,96.70
2018-10-21T10:37:22.640Z,96.50
2018-10-21T10:39:50.987Z,96.40
2018-10-21T10:42:19.400Z,96.10
2018-10-21T10:44:47.677Z,96.10
2018-10-21T10:47:16.077Z,96.00
2018-10-21T10:49:44.399Z,96.10
2018-10-21T10:52:12.833Z,96.00
2018-10-21T10:54:41.152Z,95.80
2018-10-21T10:57:09.492Z,95.70
2018-10-21T10:59:37.905Z,95.70
2018-10-21T11:02:06.444Z,95.70
2018-10-21T11:04:34.805Z,95.50
2018-10-21T11:07:03.174Z,95.50
2018-10-21T11:09:31.515Z,95.40
2018-10-21T11:11:59.860Z,95.10
2018-10-21T11:14:28.225Z,94.90
2018-10-21T11:16:56.559Z,94.90
2018-10-21T11:19:25.866Z,95.00
2018-10-21T11:21:54.314Z,94.80
2018-10-21T11:24:22.578Z,94.60
2018-10-21T11:26:51.107Z,94.40
2018-10-21T11:29:19.438Z,94.30
2018-10-21T11:31:47.917Z,94.20
2018-10-21T11:34:16.358Z,94.30
2018-10-21T11:36:45.149Z,94.10
2018-10-21T11:39:13.506Z,94.10
2018-10-21T11:41:41.887Z,93.90
2018-10-21T11:44:10.258Z,93.70
2018-10-21T11:46:38.852Z,93.40
2018-10-21T11:49:07.260Z,93.20
2018-10-21T11:51:35.604Z,93.10
2018-10-21T11:54:03.979Z,93.10
2018-10-21T11:56:33.014Z,92.80
2018-10-21T11:59:02.424Z,92.80
2018-10-21T12:01:30.786Z,92.70
2018-10-21T12:03:59.199Z,92.60
2018-10-21T12:06:27.612Z,92.60
2018-10-21T12:08:55.987Z,92.70
2018-10-21T12:11:24.347Z,92.60
2018-10-21T12:13:52.720Z,92.50
2018-10-21T12:16:21.572Z,92.50
2018-10-21T12:18:49.968Z,92.30
2018-10-21T12:21:18.320Z,92.30
2018-10-21T12:23:46.691Z,92.30
2018-10-21T12:26:15.238Z,92.10
2018-10-21T12:28:43.680Z,92.10
2018-10-21T12:31:12.103Z,91.80
2018-10-21T12:33:44.408Z,91.20
2018-10-21T12:36:14.243Z,91.10
2018-10-21T12:38:42.573Z,91.00
2018-10-21T12:41:11.550Z,91.10
2018-10-21T12:43:40.696Z,91.10
2018-10-21T12:46:09.050Z,90.80
2018-10-21T12:48:37.558Z,90.60
2018-10-21T12:51:05.956Z,90.50
2018-10-21T12:53:34.291Z,90.70
2018-10-21T12:56:02.651Z,90.60
2018-10-21T12:58:30.982Z,90.10
2018-10-21T13:00:59.341Z,90.00
2018-10-21T13:03:27.667Z,90.10
2018-10-21T13:05:56.027Z,90.00
2018-10-21T13:08:24.354Z,90.00
2018-10-21T13:10:52.814Z,90.00
2018-10-21T13:13:21.162Z,89.60
2018-10-21T13:15:49.535Z,89.40
2018-10-21T13:18:17.891Z,89.30
2018-10-21T13:20:46.254Z,89.00
2018-10-21T13:23:14.690Z,89.00
2018-10-21T13:25:43.035Z,88.50
2018-10-21T13:28:11.406Z,88.10
2018-10-21T13:30:39.730Z,88.10
2018-10-21T13:33:08.193Z,88.10
2018-10-21T13:35:36.560Z,87.70
2018-10-21T13:38:04.946Z,87.60
2018-10-21T13:40:33.311Z,87.40
2018-10-21T13:43:01.668Z,87.70
2018-10-21T13:45:30.001Z,87.50
2018-10-21T13:47:58.401Z,86.70
2018-10-21T13:50:26.723Z,86.50
2018-10-21T13:52:55.136Z,85.90
2018-10-21T13:55:23.423Z,84.90
2018-10-21T13:57:51.755Z,85.00
2018-10-21T14:00:20.116Z,84.30
2018-10-21T14:02:48.451Z,83.50
2018-10-21T14:05:16.779Z,83.50
2018-10-21T14:07:45.124Z,83.80
2018-10-21T14:10:13.544Z,83.30
2018-10-21T14:12:42.780Z,83.30
2018-10-21T14:15:11.136Z,83.00
2018-10-21T14:17:39.483Z,82.90
2018-10-21T14:20:09.135Z,82.70
2018-10-21T14:22:37.514Z,82.30
2018-10-21T14:25:06.214Z,82.20
2018-10-21T14:27:34.529Z,82.50
2018-10-21T14:30:03.022Z,82.20
2018-10-21T14:32:31.307Z,81.70
2018-10-21T14:34:59.840Z,82.00
2018-10-21T14:37:28.190Z,82.20
2018-10-21T14:39:56.540Z,82.30
2018-10-21T14:42:24.885Z,82.20
2018-10-21T14:44:53.215Z,81.90
2018-10-21T14:47:21.572Z,82.20
2018-10-21T14:49:49.915Z,82.10
2018-10-21T14:52:18.276Z,81.90
2018-10-21T14:54:46.623Z,82.10
2018-10-21T14:57:15.004Z,82.80
2018-10-21T14:59:43.335Z,82.70
2018-10-21T15:02:11.733Z,82.60
2018-10-21T15:04:40.027Z,82.80
2018-10-21T15:07:08.401Z,82.90
2018-10-21T15:09:36.748Z,83.10
2018-10-21T15:12:05.487Z,83.20
2018-10-21T15:14:33.796Z,83.00
2018-10-21T15:17:02.137Z,83.10
2018-10-21T15:19:30.495Z,83.10
2018-10-21T15:21:58.819Z,83.10
2018-10-21T15:24:27.179Z,83.00
2018-10-21T15:26:55.498Z,82.20
2018-10-21T15:29:23.842Z,81.00
2018-10-21T15:31:52.156Z,81.80
2018-10-21T15:34:20.511Z,81.80
2018-10-21T15:36:49.011Z,82.20
2018-10-21T15:39:17.358Z,82.80
2018-10-21T15:41:45.735Z,83.30
2018-10-21T15:44:14.121Z,83.70
2018-10-21T15:46:42.431Z,84.10
2018-10-21T15:49:10.771Z,84.60
2018-10-21T15:51:39.111Z,84.90
2018-10-21T15:54:07.499Z,85.10
2018-10-21T15:56:35.869Z,85.40
2018-10-21T15:59:04.265Z,86.20
2018-10-21T16:01:32.602Z,86.50
2018-10-21T16:04:00.966Z,86.90
2018-10-21T16:06:29.292Z,87.20
2018-10-21T16:08:57.655Z,87.30
2018-10-21T16:11:25.979Z,87.70
2018-10-21T16:13:54.378Z,87.90
2018-10-21T16:16:22.824Z,88.20
2018-10-21T16:18:51.198Z,88.50
2018-10-21T16:21:19.547Z,89.10
2018-10-21T16:23:47.915Z,89.20
2018-10-21T16:26:16.288Z,89.40
2018-10-21T16:28:44.600Z,89.70
2018-10-21T16:31:12.932Z,90.00
2018-10-21T16:33:41.308Z,90.10
2018-10-21T16:36:09.660Z,90.30
2018-10-21T16:38:38.030Z,90.50
2018-10-21T16:41:06.784Z,90.60
2018-10-21T16:43:35.121Z,90.70
2018-10-21T16:46:03.759Z,90.80
2018-10-21T16:48:32.090Z,91.00
2018-10-21T16:51:00.538Z,91.10
2018-10-21T16:53:28.929Z,91.30
2018-10-21T16:55:57.223Z,91.40
2018-10-21T16:58:25.560Z,91.50
2018-10-21T17:00:54.051Z,91.80
2018-10-21T17:03:22.376Z,92.00
2018-10-21T17:05:50.680Z,92.00
2018-10-21T17:08:19.012Z,92.10
2018-10-21T17:10:47.400Z,92.30
2018-10-21T17:13:15.748Z,92.40
2018-10-21T17:15:44.166Z,92.50
2018-10-21T17:18:12.744Z,92.70
2018-10-21T17:20:41.090Z,92.90
2018-10-21T17:23:09.423Z,93.20
2018-10-21T17:25:37.773Z,93.20
2018-10-21T17:28:06.143Z,93.40
2018-10-21T17:30:34.554Z,93.40
2018-10-21T17:33:02.843Z,93.40
2018-10-21T17:35:31.190Z,93.50
2018-10-21T17:37:59.535Z,93.50
2018-10-21T17:40:27.985Z,93.60
2018-10-21T17:42:56.377Z,93.70
2018-10-21T17:45:24.693Z,93.90
2018-10-21T17:47:53.032Z,94.20
2018-10-21T17:50:21.388Z,94.30
2018-10-21T17:52:49.711Z,94.60
2018-10-21T17:55:18.144Z,94.50
2018-10-21T17:57:46.418Z,94.70
2018-10-21T18:00:15.167Z,94.90
2018-10-21T18:02:43.503Z,94.90
2018-10-21T18:05:13.130Z,94.90
2018-10-21T18:07:41.937Z,94.90
2018-10-21T18:10:10.710Z,94.90
2018-10-21T18:12:39.081Z,94.80
2018-10-21T18:15:08.288Z,94.80
2018-10-21T18:17:37.100Z,95.00
2018-10-21T18:20:06.277Z,95.10
2018-10-21T18:22:34.620Z,95.20
2018-10-21T18:25:02.990Z,95.30
2018-10-21T18:27:31.338Z,95.40
2018-10-21T18:29:59.673Z,95.50
2018-10-21T18:32:28.033Z,95.50
2018-10-21T18:34:56.399Z,95.70
2018-10-21T18:37:24.757Z,95.90
2018-10-21T18:39:53.139Z,96.10
2018-10-21T18:42:21.698Z,96.20
2018-10-21T18:44:50.075Z,96.50
2018-10-21T18:47:18.450Z,96.60
2018-10-21T18:49:46.783Z,96.60
2018-10-21T18:52:15.808Z,96.60
2018-10-21T18:54:44.110Z,96.60
2018-10-21T18:57:12.566Z,96.60
2018-10-21T18:59:40.933Z,97.00
2018-10-21T19:02:09.311Z,96.70
2018-10-21T19:04:37.719Z,96.80
2018-10-21T19:07:06.462Z,96.90
2018-10-21T19:09:34.773Z,97.10
2018-10-21T19:12:03.127Z,97.10
2018-10-21T19:14:31.656Z,96.80
2018-10-21T19:16:59.986Z,96.80
2018-10-21T19:19:28.362Z,96.70
2018-10-21T19:21:56.702Z,96.50
2018-10-21T19:24:25.062Z,96.50
2018-10-21T19:26:53.455Z,96.50
2018-10-21T19:29:21.804Z,96.70
2018-10-21T19:31:51.044Z,96.70
2018-10-21T19:34:19.481Z,96.60
2018-10-21T19:36:47.768Z,96.80
2018-10-21T19:39:16.110Z,96.70
2018-10-21T19:41:44.451Z,96.60
2018-10-21T19:44:12.800Z,96.50
2018-10-21T19:46:41.188Z,96.60
2018-10-21T19:49:09.941Z,96.60
2018-10-21T19:51:38.266Z,96.70
2018-10-21T19:54:06.695Z,96.70
2018-10-21T19:56:35.031Z,96.80
2018-10-21T19:59:04.451Z,96.90
2018-10-21T20:01:32.781Z,96.90
2018-10-21T20:04:01.302Z,96.90
2018-10-21T20:06:29.611Z,97.00
2018-10-21T20:08:57.966Z,97.30
2018-10-21T20:11:26.294Z,97.60
2018-10-21T20:13:54.663Z,97.70
2018-10-21T20:16:23.355Z,97.70
2018-10-21T20:18:52.066Z,97.60
2018-10-21T20:21:20.414Z,97.20
2018-10-21T20:23:48.811Z,97.10
2018-10-21T20:26:17.247Z,97.10
2018-10-21T20:28:45.606Z,97.10
2018-10-21T20:31:14.014Z,97.20
2018-10-21T20:33:42.621Z,97.20
2018-10-21T20:36:10.958Z,97.40
2018-10-21T20:38:39.731Z,97.40
2018-10-21T20:41:08.093Z,97.70
2018-10-21T20:43:36.448Z,97.50
2018-10-21T20:46:05.017Z,97.50
2018-10-21T20:48:33.306Z,97.50
2018-10-21T20:51:02.129Z,97.50
2018-10-21T20:53:30.417Z,97.50
2018-10-21T20:55:58.747Z,97.50
2018-10-21T20:58:27.140Z,97.60
2018-10-21T21:00:55.437Z,97.60
2018-10-21T21:03:23.773Z,97.60
2018-10-21T21:05:52.123Z,97.70
2018-10-21T21:08:20.536Z,98.10
2018-10-21T21:10:48.823Z,98.40
2018-10-21T21:13:17.150Z,98.50
2018-10-21T21:15:45.484Z,98.60
2018-10-21T21:18:13.904Z,98.70
2018-10-21T21:20:42.290Z,98.80
2018-10-21T21:23:10.575Z,99.10
2018-10-21T21:25:38.909Z,99.40
2018-10-21T21:28:07.883Z,99.60
2018-10-21T21:30:36.532Z,99.80
2018-10-21T21:33:05.455Z,99.90
2018-10-21T21:35:33.808Z,99.90
2018-10-21T21:38:02.134Z,99.90
2018-10-21T21:40:30.551Z,99.90
2018-10-21T21:42:58.896Z,99.90
2018-10-21T21:45:27.211Z,99.90
2018-10-21T21:47:55.630Z,99.90
2018-10-21T21:50:23.955Z,99.90
2018-10-21T21:52:52.336Z,99.90
2018-10-21T21:55:20.773Z,99.90
2018-10-21T21:57:49.117Z,99.90
2018-10-21T22:00:17.490Z,99.90
2018-10-21T22:02:45.802Z,99.90
2018-10-21T22:05:14.131Z,99.90
2018-10-21T22:07:42.477Z,99.90
2018-10-21T22:10:12.690Z,99.90
2018-10-21T22:12:41.549Z,99.90
2018-10-21T22:15:09.936Z,99.90
2018-10-21T22:17:38.920Z,99.90
2018-10-21T22:20:07.288Z,99.90
2018-10-21T22:22:35.641Z,99.90
2018-10-21T22:25:04.019Z,99.90
2018-10-21T22:27:32.355Z,99.90
2018-10-21T22:30:00.766Z,99.90
2018-10-21T22:32:29.085Z,99.90
2018-10-21T22:34:57.428Z,99.90
2018-10-21T22:37:25.783Z,99.90
2018-10-21T22:39:54.177Z,99.90
2018-10-21T22:42:22.509Z,99.90
2018-10-21T22:44:50.850Z,99.90
2018-10-21T22:47:19.189Z,99.90
2018-10-21T22:49:47.518Z,99.90
2018-10-21T22:52:15.927Z,99.90
2018-10-21T22:54:44.351Z,99.90
2018-10-21T22:57:17.215Z,99.90
2018-10-21T22:59:46.570Z,99.90
2018-10-21T23:02:15.416Z,99.90
2018-10-21T23:04:43.979Z,99.90
2018-10-21T23:07:12.317Z,99.90
2018-10-21T23:09:40.688Z,99.90
2018-10-21T23:12:09.388Z,99.90
2018-10-21T23:14:38.036Z,99.90
2018-10-21T23:17:06.451Z,99.90
2018-10-21T23:19:45.527Z,99.90
2018-10-21T23:22:13.974Z,99.90
2018-10-21T23:24:42.507Z,99.90
2018-10-21T23:27:11.792Z,99.90
2018-10-21T23:29:40.721Z,99.90
2018-10-21T23:32:09.064Z,99.90
2018-10-21T23:34:37.487Z,99.90
2018-10-21T23:37:05.863Z,99.90
2018-10-21T23:39:34.215Z,99.90
2018-10-21T23:42:02.606Z,99.90
2018-10-21T23:44:31.275Z,99.90
2018-10-21T23:46:59.602Z,99.90
2018-10-21T23:53:02.725Z,99.90
2018-10-21T23:55:31.123Z,99.90
2018-10-21T23:57:59.498Z,99.90
